sensor_id;sensor_type;location;lat;lon;timestamp;pressure;altitude;pressure_sealevel;temperature;humidity
64064;BME280;50314;50.618;10.642;2023-02-17T00:00:21;97276.97;;;14.69;23.09
64064;BME280;50314;50.618;10.642;2023-02-17T00:02:47;97272.53;;;14.69;23.00
64064;BME280;50314;50.618;10.642;2023-02-17T00:05:12;97275.28;;;14.68;23.04
64064;BME280;50314;50.618;10.642;2023-02-17T00:07:38;97262.97;;;14.67;23.04
64064;BME280;50314;50.618;10.642;2023-02-17T00:10:04;97263.81;;;14.67;23.01
64064;BME280;50314;50.618;10.642;2023-02-17T00:12:29;97259.50;;;14.66;23.34
64064;BME280;50314;50.618;10.642;2023-02-17T00:14:55;97264.91;;;14.65;22.99
64064;BME280;50314;50.618;10.642;2023-02-17T00:17:20;97257.91;;;14.64;23.38
64064;BME280;50314;50.618;10.642;2023-02-17T00:19:46;97261.56;;;14.63;22.92
64064;BME280;50314;50.618;10.642;2023-02-17T00:22:11;97261.56;;;14.63;22.95
64064;BME280;50314;50.618;10.642;2023-02-17T00:24:38;97254.53;;;14.62;22.93
64064;BME280;50314;50.618;10.642;2023-02-17T00:27:04;97253.50;;;14.53;23.08
64064;BME280;50314;50.618;10.642;2023-02-17T00:29:29;97246.84;;;14.58;22.99
64064;BME280;50314;50.618;10.642;2023-02-17T00:31:55;97251.31;;;14.58;22.93
64064;BME280;50314;50.618;10.642;2023-02-17T00:34:21;97246.84;;;14.58;23.08
64064;BME280;50314;50.618;10.642;2023-02-17T00:36:46;97257.44;;;14.58;23.11
64064;BME280;50314;50.618;10.642;2023-02-17T00:39:13;97252.13;;;14.58;23.27
64064;BME280;50314;50.618;10.642;2023-02-17T00:41:39;97249.28;;;14.50;23.21
64064;BME280;50314;50.618;10.642;2023-02-17T00:44:05;97253.13;;;14.57;23.30
64064;BME280;50314;50.618;10.642;2023-02-17T00:46:30;97247.81;;;14.57;23.20
64064;BME280;50314;50.618;10.642;2023-02-17T00:48:56;97252.88;;;14.61;23.04
64064;BME280;50314;50.618;10.642;2023-02-17T00:51:22;97251.06;;;14.61;23.18
64064;BME280;50314;50.618;10.642;2023-02-17T00:53:48;97247.56;;;14.61;22.95
64064;BME280;50314;50.618;10.642;2023-02-17T00:56:13;97246.59;;;14.62;23.21
64064;BME280;50314;50.618;10.642;2023-02-17T00:58:39;97242.25;;;14.61;22.98
64064;BME280;50314;50.618;10.642;2023-02-17T01:01:06;97245.75;;;14.61;22.91
64064;BME280;50314;50.618;10.642;2023-02-17T01:03:31;97234.16;;;14.62;23.31
64064;BME280;50314;50.618;10.642;2023-02-17T01:05:57;97227.09;;;14.63;23.12
64064;BME280;50314;50.618;10.642;2023-02-17T01:08:23;97219.00;;;14.64;22.92
64064;BME280;50314;50.618;10.642;2023-02-17T01:10:50;97212.84;;;14.64;23.27
64064;BME280;50314;50.618;10.642;2023-02-17T01:13:16;97211.88;;;14.65;23.33
64064;BME280;50314;50.618;10.642;2023-02-17T01:15:48;97216.47;;;14.63;23.24
64064;BME280;50314;50.618;10.642;2023-02-17T01:18:15;97209.94;;;14.67;23.23
64064;BME280;50314;50.618;10.642;2023-02-17T01:20:40;97211.66;;;14.68;23.34
64064;BME280;50314;50.618;10.642;2023-02-17T01:23:07;97209.00;;;14.68;22.95
64064;BME280;50314;50.618;10.642;2023-02-17T01:25:38;97203.72;;;14.68;23.05
64064;BME280;50314;50.618;10.642;2023-02-17T01:28:04;97199.97;;;14.70;23.31
64064;BME280;50314;50.618;10.642;2023-02-17T01:30:31;97206.09;;;14.71;23.02
64064;BME280;50314;50.618;10.642;2023-02-17T01:32:56;97206.09;;;14.71;23.25
64064;BME280;50314;50.618;10.642;2023-02-17T01:35:22;97212.25;;;14.71;22.90
64064;BME280;50314;50.618;10.642;2023-02-17T01:37:47;97202.47;;;14.72;23.15
64064;BME280;50314;50.618;10.642;2023-02-17T01:40:14;97184.75;;;14.72;23.02
64064;BME280;50314;50.618;10.642;2023-02-17T01:42:40;97182.09;;;14.72;22.95
64064;BME280;50314;50.618;10.642;2023-02-17T01:48:06;97179.59;;;14.71;23.21
64064;BME280;50314;50.618;10.642;2023-02-17T01:50:34;97184.75;;;14.72;23.37
64064;BME280;50314;50.618;10.642;2023-02-17T01:53:01;97172.38;;;14.73;23.11
64064;BME280;50314;50.618;10.642;2023-02-17T01:55:30;97182.81;;;14.74;23.26
64064;BME280;50314;50.618;10.642;2023-02-17T01:57:57;97177.53;;;14.74;23.28
64064;BME280;50314;50.618;10.642;2023-02-17T02:00:25;97171.38;;;14.74;23.23
64064;BME280;50314;50.618;10.642;2023-02-17T02:02:52;97164.28;;;14.74;23.37
64064;BME280;50314;50.618;10.642;2023-02-17T02:05:19;97170.41;;;14.75;23.05
64064;BME280;50314;50.618;10.642;2023-02-17T02:07:46;97162.44;;;14.75;23.15
64064;BME280;50314;50.618;10.642;2023-02-17T02:10:14;97168.59;;;14.75;23.26
64064;BME280;50314;50.618;10.642;2023-02-17T02:12:41;97172.13;;;14.76;23.02
64064;BME280;50314;50.618;10.642;2023-02-17T02:15:20;97163.44;;;14.74;23.31
64064;BME280;50314;50.618;10.642;2023-02-17T02:18:20;97165.63;;;14.69;23.32
64064;BME280;50314;50.618;10.642;2023-02-17T02:23:59;97149.09;;;14.65;23.14
64064;BME280;50314;50.618;10.642;2023-02-17T02:32:15;97137.66;;;14.65;23.43
64064;BME280;50314;50.618;10.642;2023-02-17T02:34:48;97140.19;;;14.66;23.26
64064;BME280;50314;50.618;10.642;2023-02-17T02:37:24;97145.38;;;14.68;23.39
64064;BME280;50314;50.618;10.642;2023-02-17T02:39:51;97145.75;;;14.63;23.24
64064;BME280;50314;50.618;10.642;2023-02-17T02:42:22;97133.91;;;14.67;23.50
64064;BME280;50314;50.618;10.642;2023-02-17T02:44:48;97137.16;;;14.71;23.20
64064;BME280;50314;50.618;10.642;2023-02-17T02:50:14;97134.66;;;14.69;23.28
64064;BME280;50314;50.618;10.642;2023-02-17T03:00:56;97115.25;;;14.69;23.59
64064;BME280;50314;50.618;10.642;2023-02-17T03:06:16;97127.41;;;14.71;23.13
64064;BME280;50314;50.618;10.642;2023-02-17T03:09:22;97128.25;;;14.72;23.13
64064;BME280;50314;50.618;10.642;2023-02-17T03:11:40;97125.34;;;14.75;23.37
64064;BME280;50314;50.618;10.642;2023-02-17T03:14:14;97117.63;;;14.72;23.36
64064;BME280;50314;50.618;10.642;2023-02-17T03:16:41;97110.16;;;14.77;23.14
64064;BME280;50314;50.618;10.642;2023-02-17T03:19:09;97108.34;;;14.77;23.39
64064;BME280;50314;50.618;10.642;2023-02-17T03:21:42;97105.81;;;14.76;23.47
64064;BME280;50314;50.618;10.642;2023-02-17T03:24:09;97097.59;;;14.79;23.37
64064;BME280;50314;50.618;10.642;2023-02-17T03:26:35;97088.78;;;14.78;23.04
64064;BME280;50314;50.618;10.642;2023-02-17T03:29:00;97077.25;;;14.79;23.05
64064;BME280;50314;50.618;10.642;2023-02-17T03:31:26;97077.25;;;14.79;23.05
64064;BME280;50314;50.618;10.642;2023-02-17T03:33:52;97079.03;;;14.79;22.99
64064;BME280;50314;50.618;10.642;2023-02-17T03:36:17;97073.59;;;14.80;23.43
64064;BME280;50314;50.618;10.642;2023-02-17T03:38:43;97072.63;;;14.82;23.44
64064;BME280;50314;50.618;10.642;2023-02-17T03:41:08;97077.09;;;14.81;23.52
64064;BME280;50314;50.618;10.642;2023-02-17T03:43:33;97078.75;;;14.82;23.03
64064;BME280;50314;50.618;10.642;2023-02-17T03:46:00;97080.59;;;14.82;23.00
64064;BME280;50314;50.618;10.642;2023-02-17T03:48:25;97073.47;;;14.82;23.34
64064;BME280;50314;50.618;10.642;2023-02-17T03:50:51;97080.59;;;14.82;23.15
64064;BME280;50314;50.618;10.642;2023-02-17T03:53:16;97068.16;;;14.82;23.38
64064;BME280;50314;50.618;10.642;2023-02-17T03:55:41;97065.50;;;14.82;23.19
64064;BME280;50314;50.618;10.642;2023-02-17T03:58:07;97076.94;;;14.83;23.45
64064;BME280;50314;50.618;10.642;2023-02-17T04:00:32;97078.66;;;14.84;23.36
64064;BME280;50314;50.618;10.642;2023-02-17T04:02:58;97066.22;;;14.84;23.41
64064;BME280;50314;50.618;10.642;2023-02-17T04:05:23;97076.84;;;14.84;23.43
64064;BME280;50314;50.618;10.642;2023-02-17T04:07:49;97074.19;;;14.84;23.47
64064;BME280;50314;50.618;10.642;2023-02-17T04:10:14;97075.84;;;14.85;23.20
64064;BME280;50314;50.618;10.642;2023-02-17T04:12:40;97080.31;;;14.85;23.22
64064;BME280;50314;50.618;10.642;2023-02-17T04:15:06;97073.34;;;14.84;23.07
64064;BME280;50314;50.618;10.642;2023-02-17T04:17:31;97077.81;;;14.83;23.09
64064;BME280;50314;50.618;10.642;2023-02-17T04:19:57;97078.66;;;14.84;23.13
64064;BME280;50314;50.618;10.642;2023-02-17T04:22:22;97080.31;;;14.85;23.35
64064;BME280;50314;50.618;10.642;2023-02-17T04:24:48;97083.13;;;14.83;23.31
64064;BME280;50314;50.618;10.642;2023-02-17T04:27:13;97075.84;;;14.85;23.49
64064;BME280;50314;50.618;10.642;2023-02-17T04:29:39;97079.50;;;14.84;23.35
64064;BME280;50314;50.618;10.642;2023-02-17T04:32:04;97075.84;;;14.85;23.23
64064;BME280;50314;50.618;10.642;2023-02-17T04:34:30;97079.50;;;14.84;23.44
64064;BME280;50314;50.618;10.642;2023-02-17T04:36:55;97079.50;;;14.84;23.09
64064;BME280;50314;50.618;10.642;2023-02-17T04:39:21;97075.84;;;14.85;23.07
64064;BME280;50314;50.618;10.642;2023-02-17T04:41:46;97075.84;;;14.85;23.08
64064;BME280;50314;50.618;10.642;2023-02-17T04:44:12;97072.25;;;14.86;23.40
64064;BME280;50314;50.618;10.642;2023-02-17T04:46:37;97071.38;;;14.86;23.18
64064;BME280;50314;50.618;10.642;2023-02-17T04:49:02;97073.19;;;14.85;22.99
64064;BME280;50314;50.618;10.642;2023-02-17T04:51:28;97082.84;;;14.86;23.02
64064;BME280;50314;50.618;10.642;2023-02-17T04:53:53;97078.38;;;14.87;23.35
64064;BME280;50314;50.618;10.642;2023-02-17T04:56:19;97069.47;;;14.88;23.25
64064;BME280;50314;50.618;10.642;2023-02-17T04:58:44;97074.75;;;14.88;23.19
64064;BME280;50314;50.618;10.642;2023-02-17T05:01:10;97075.59;;;14.88;23.16
64064;BME280;50314;50.618;10.642;2023-02-17T05:03:35;97073.78;;;14.89;23.42
64064;BME280;50314;50.618;10.642;2023-02-17T05:06:01;97074.63;;;14.89;23.00
64064;BME280;50314;50.618;10.642;2023-02-17T05:08:26;97071.97;;;14.89;23.41
64064;BME280;50314;50.618;10.642;2023-02-17T05:10:52;97069.31;;;14.89;23.41
64064;BME280;50314;50.618;10.642;2023-02-17T05:13:18;97076.31;;;14.90;23.15
64064;BME280;50314;50.618;10.642;2023-02-17T05:15:44;97072.81;;;14.90;23.42
64064;BME280;50314;50.618;10.642;2023-02-17T05:18:10;97064.88;;;14.90;23.33
64064;BME280;50314;50.618;10.642;2023-02-17T05:20:36;97065.72;;;14.90;23.07
64064;BME280;50314;50.618;10.642;2023-02-17T05:23:01;97075.47;;;14.90;23.42
64064;BME280;50314;50.618;10.642;2023-02-17T05:25:27;97066.53;;;14.91;23.17
64064;BME280;50314;50.618;10.642;2023-02-17T05:27:52;97060.41;;;14.90;23.39
64064;BME280;50314;50.618;10.642;2023-02-17T05:30:18;97063.06;;;14.90;23.30
64064;BME280;50314;50.618;10.642;2023-02-17T05:32:44;97056.03;;;14.89;23.26
64064;BME280;50314;50.618;10.642;2023-02-17T05:35:09;97052.44;;;14.90;23.23
64064;BME280;50314;50.618;10.642;2023-02-17T05:37:35;97053.28;;;14.91;23.43
64064;BME280;50314;50.618;10.642;2023-02-17T05:40:00;97039.88;;;14.92;23.50
64064;BME280;50314;50.618;10.642;2023-02-17T05:42:26;97046.16;;;14.91;23.47
64064;BME280;50314;50.618;10.642;2023-02-17T05:44:53;97029.28;;;14.92;23.54
64064;BME280;50314;50.618;10.642;2023-02-17T05:47:19;97028.44;;;14.92;23.21
64064;BME280;50314;50.618;10.642;2023-02-17T05:49:45;97024.84;;;14.93;23.61
64064;BME280;50314;50.618;10.642;2023-02-17T05:52:10;97030.97;;;14.93;23.24
64064;BME280;50314;50.618;10.642;2023-02-17T05:54:35;97037.94;;;14.94;23.45
64064;BME280;50314;50.618;10.642;2023-02-17T05:57:02;97034.31;;;14.95;23.49
64064;BME280;50314;50.618;10.642;2023-02-17T05:59:28;97050.22;;;14.95;23.58
64064;BME280;50314;50.618;10.642;2023-02-17T06:01:53;97044.91;;;14.95;23.56
64064;BME280;50314;50.618;10.642;2023-02-17T06:04:18;97046.63;;;14.96;23.43
64064;BME280;50314;50.618;10.642;2023-02-17T06:06:44;97053.84;;;14.94;23.40
64064;BME280;50314;50.618;10.642;2023-02-17T06:09:09;97051.22;;;14.94;23.53
64064;BME280;50314;50.618;10.642;2023-02-17T06:11:35;97052.88;;;14.95;23.43
64064;BME280;50314;50.618;10.642;2023-02-17T06:14:00;97057.22;;;14.96;23.22
64064;BME280;50314;50.618;10.642;2023-02-17T06:16:26;97056.25;;;14.97;23.52
64064;BME280;50314;50.618;10.642;2023-02-17T06:18:51;97066.97;;;14.96;23.07
64064;BME280;50314;50.618;10.642;2023-02-17T06:21:17;97057.22;;;14.96;23.31
64064;BME280;50314;50.618;10.642;2023-02-17T06:23:42;97050.22;;;14.95;23.40
64064;BME280;50314;50.618;10.642;2023-02-17T06:26:08;97055.53;;;14.95;23.61
64064;BME280;50314;50.618;10.642;2023-02-17T06:28:33;97042.28;;;14.95;23.25
64064;BME280;50314;50.618;10.642;2023-02-17T06:30:58;97039.63;;;14.95;23.37
64064;BME280;50314;50.618;10.642;2023-02-17T06:33:24;97043.09;;;14.96;23.51
64064;BME280;50314;50.618;10.642;2023-02-17T06:35:50;97035.16;;;14.96;23.57
64064;BME280;50314;50.618;10.642;2023-02-17T06:38:16;97031.53;;;14.97;23.17
64064;BME280;50314;50.618;10.642;2023-02-17T06:40:42;97026.25;;;14.97;23.34
64064;BME280;50314;50.618;10.642;2023-02-17T06:43:08;97026.25;;;14.97;23.44
64064;BME280;50314;50.618;10.642;2023-02-17T06:45:33;97035.03;;;14.97;23.07
64064;BME280;50314;50.618;10.642;2023-02-17T06:47:59;97028.75;;;14.98;23.47
64064;BME280;50314;50.618;10.642;2023-02-17T06:50:24;97038.53;;;14.98;23.25
64064;BME280;50314;50.618;10.642;2023-02-17T06:52:49;97043.81;;;14.98;23.50
64064;BME280;50314;50.618;10.642;2023-02-17T06:55:15;97050.78;;;14.99;23.19
64064;BME280;50314;50.618;10.642;2023-02-17T06:57:40;97043.69;;;14.99;23.09
64064;BME280;50314;50.618;10.642;2023-02-17T07:00:06;97042.00;;;14.98;23.28
64064;BME280;50314;50.618;10.642;2023-02-17T07:02:32;97052.63;;;14.98;23.18
64064;BME280;50314;50.618;10.642;2023-02-17T07:04:58;97062.25;;;14.99;23.58
64064;BME280;50314;50.618;10.642;2023-02-17T07:07:23;97066.72;;;14.99;23.37
64064;BME280;50314;50.618;10.642;2023-02-17T07:09:48;97064.78;;;15.01;23.32
64064;BME280;50314;50.618;10.642;2023-02-17T07:12:14;97069.25;;;15.00;23.43
64064;BME280;50314;50.618;10.642;2023-02-17T07:14:39;97072.72;;;15.01;23.18
64064;BME280;50314;50.618;10.642;2023-02-17T07:17:05;97070.91;;;15.01;23.41
64064;BME280;50314;50.618;10.642;2023-02-17T07:19:30;97061.16;;;15.02;23.37
64064;BME280;50314;50.618;10.642;2023-02-17T07:21:56;97066.34;;;15.03;23.76
64064;BME280;50314;50.618;10.642;2023-02-17T07:24:21;97065.34;;;15.04;23.69
64064;BME280;50314;50.618;10.642;2023-02-17T07:26:47;97053.91;;;15.04;23.60
64064;BME280;50314;50.618;10.642;2023-02-17T07:29:12;97068.00;;;15.04;23.52
64064;BME280;50314;50.618;10.642;2023-02-17T07:31:38;97066.19;;;15.05;23.60
64064;BME280;50314;50.618;10.642;2023-02-17T07:34:04;97085.59;;;15.06;23.84
64064;BME280;50314;50.618;10.642;2023-02-17T07:36:30;97077.63;;;15.06;23.81
64064;BME280;50314;50.618;10.642;2023-02-17T07:38:55;97076.69;;;15.07;23.56
64064;BME280;50314;50.618;10.642;2023-02-17T07:41:22;97080.16;;;15.07;23.98
64064;BME280;50314;50.618;10.642;2023-02-17T07:43:52;97067.03;;;15.06;23.72
64064;BME280;50314;50.618;10.642;2023-02-17T07:46:18;97063.28;;;15.08;23.90
64064;BME280;50314;50.618;10.642;2023-02-17T07:48:44;97059.78;;;15.08;23.74
64064;BME280;50314;50.618;10.642;2023-02-17T07:51:14;97064.25;;;15.07;23.87
64064;BME280;50314;50.618;10.642;2023-02-17T07:53:40;97073.75;;;15.10;23.91
64064;BME280;50314;50.618;10.642;2023-02-17T07:56:08;97062.28;;;15.09;24.07
64064;BME280;50314;50.618;10.642;2023-02-17T07:58:35;97066.66;;;15.10;23.81
64064;BME280;50314;50.618;10.642;2023-02-17T08:01:08;97062.97;;;15.01;24.11
64064;BME280;50314;50.618;10.642;2023-02-17T08:03:33;97077.38;;;15.09;24.01
64064;BME280;50314;50.618;10.642;2023-02-17T08:05:59;97089.66;;;15.10;23.75
64064;BME280;50314;50.618;10.642;2023-02-17T08:08:25;97077.38;;;15.09;23.91
64064;BME280;50314;50.618;10.642;2023-02-17T08:11:14;97078.22;;;15.09;23.85
64064;BME280;50314;50.618;10.642;2023-02-17T08:13:59;97066.75;;;15.09;23.80
64064;BME280;50314;50.618;10.642;2023-02-17T08:16:24;97064.81;;;15.11;23.92
64064;BME280;50314;50.618;10.642;2023-02-17T08:18:53;97072.63;;;15.12;23.78
64064;BME280;50314;50.618;10.642;2023-02-17T08:21:20;97068.16;;;15.13;23.87
64064;BME280;50314;50.618;10.642;2023-02-17T08:23:46;97053.13;;;15.13;23.73
64064;BME280;50314;50.618;10.642;2023-02-17T08:26:11;97055.63;;;15.15;23.69
64064;BME280;50314;50.618;10.642;2023-02-17T08:28:37;97050.31;;;15.15;24.07
64064;BME280;50314;50.618;10.642;2023-02-17T08:31:02;97051.16;;;15.15;23.79
64064;BME280;50314;50.618;10.642;2023-02-17T08:33:28;97058.28;;;15.15;23.66
64064;BME280;50314;50.618;10.642;2023-02-17T08:35:53;97071.53;;;15.15;23.71
64064;BME280;50314;50.618;10.642;2023-02-17T08:38:19;97069.88;;;15.14;23.85
64064;BME280;50314;50.618;10.642;2023-02-17T08:40:44;97059.25;;;15.14;23.90
64064;BME280;50314;50.618;10.642;2023-02-17T08:43:10;97053.94;;;15.14;23.48
64064;BME280;50314;50.618;10.642;2023-02-17T08:45:35;97060.94;;;15.15;23.65
64064;BME280;50314;50.618;10.642;2023-02-17T08:48:03;97049.47;;;15.14;23.86
64064;BME280;50314;50.618;10.642;2023-02-17T08:50:31;97062.75;;;15.14;23.72
64064;BME280;50314;50.618;10.642;2023-02-17T08:52:56;97054.63;;;15.16;23.65
64064;BME280;50314;50.618;10.642;2023-02-17T08:55:22;97059.84;;;15.17;23.60
64064;BME280;50314;50.618;10.642;2023-02-17T08:57:48;97059.84;;;15.17;23.49
64064;BME280;50314;50.618;10.642;2023-02-17T09:00:16;97063.16;;;15.19;23.85
64064;BME280;50314;50.618;10.642;2023-02-17T09:02:42;97065.97;;;15.18;24.00
64064;BME280;50314;50.618;10.642;2023-02-17T09:05:11;97072.94;;;15.19;23.91
64064;BME280;50314;50.618;10.642;2023-02-17T09:07:38;97067.53;;;15.20;23.64
64064;BME280;50314;50.618;10.642;2023-02-17T09:10:05;97064.88;;;15.20;23.60
64064;BME280;50314;50.618;10.642;2023-02-17T09:12:33;97057.75;;;15.21;23.78
64064;BME280;50314;50.618;10.642;2023-02-17T09:14:59;97055.78;;;15.23;23.92
64064;BME280;50314;50.618;10.642;2023-02-17T09:17:24;97057.59;;;15.22;23.49
64064;BME280;50314;50.618;10.642;2023-02-17T09:19:50;97066.41;;;15.23;23.78
64064;BME280;50314;50.618;10.642;2023-02-17T09:22:15;97061.09;;;15.23;23.70
64064;BME280;50314;50.618;10.642;2023-02-17T09:24:42;97057.47;;;15.24;23.68
64064;BME280;50314;50.618;10.642;2023-02-17T09:27:08;97054.84;;;15.24;23.55
64064;BME280;50314;50.618;10.642;2023-02-17T09:29:36;97052.19;;;15.24;23.75
64064;BME280;50314;50.618;10.642;2023-02-17T09:32:08;97047.72;;;15.24;23.89
64064;BME280;50314;50.618;10.642;2023-02-17T09:34:37;97055.50;;;15.26;23.89
64064;BME280;50314;50.618;10.642;2023-02-17T09:37:08;97041.97;;;15.29;23.99
64064;BME280;50314;50.618;10.642;2023-02-17T09:39:34;97043.69;;;15.30;23.83
64064;BME280;50314;50.618;10.642;2023-02-17T09:41:59;97045.47;;;15.30;23.90
64064;BME280;50314;50.618;10.642;2023-02-17T09:44:32;97035.00;;;15.28;24.02
64064;BME280;50314;50.618;10.642;2023-02-17T09:47:07;97037.41;;;15.31;23.85
64064;BME280;50314;50.618;10.642;2023-02-17T09:49:40;97031.25;;;15.31;23.78
64064;BME280;50314;50.618;10.642;2023-02-17T09:52:32;97027.63;;;15.32;23.75
64064;BME280;50314;50.618;10.642;2023-02-17T09:55:10;97027.03;;;15.28;24.01
64064;BME280;50314;50.618;10.642;2023-02-17T09:58:05;97027.16;;;15.26;24.16
64064;BME280;50314;50.618;10.642;2023-02-17T10:00:36;97025.09;;;15.30;24.03
64064;BME280;50314;50.618;10.642;2023-02-17T10:03:19;97031.63;;;15.26;23.99
64064;BME280;50314;50.618;10.642;2023-02-17T10:08:33;97038.38;;;15.30;24.05
64064;BME280;50314;50.618;10.642;2023-02-17T10:11:09;97048.13;;;15.30;23.96
64064;BME280;50314;50.618;10.642;2023-02-17T10:13:40;97047.84;;;15.33;23.73
64064;BME280;50314;50.618;10.642;2023-02-17T10:16:10;97046.03;;;15.33;24.02
64064;BME280;50314;50.618;10.642;2023-02-17T10:18:48;97048.69;;;15.33;23.86
64064;BME280;50314;50.618;10.642;2023-02-17T10:21:20;97059.31;;;15.33;24.06
64064;BME280;50314;50.618;10.642;2023-02-17T10:23:49;97056.38;;;15.36;23.79
64064;BME280;50314;50.618;10.642;2023-02-17T10:29:05;97052.06;;;15.35;23.97
64064;BME280;50314;50.618;10.642;2023-02-17T10:31:46;97047.84;;;15.33;23.73
64064;BME280;50314;50.618;10.642;2023-02-17T10:34:35;97050.50;;;15.33;24.11
64064;BME280;50314;50.618;10.642;2023-02-17T10:37:13;97044.38;;;15.32;24.17
64064;BME280;50314;50.618;10.642;2023-02-17T10:39:49;97050.41;;;15.34;24.14
64064;BME280;50314;50.618;10.642;2023-02-17T10:42:16;97045.66;;;15.38;24.05
64064;BME280;50314;50.618;10.642;2023-02-17T10:44:44;97044.81;;;15.37;24.00
64064;BME280;50314;50.618;10.642;2023-02-17T10:47:10;97054.31;;;15.40;24.08
64064;BME280;50314;50.618;10.642;2023-02-17T10:49:39;97043.69;;;15.40;23.95
64064;BME280;50314;50.618;10.642;2023-02-17T10:52:15;97041.19;;;15.38;23.81
64064;BME280;50314;50.618;10.642;2023-02-17T10:54:45;97043.59;;;15.41;23.68
64064;BME280;50314;50.618;10.642;2023-02-17T10:57:13;97039.84;;;15.44;23.74
64064;BME280;50314;50.618;10.642;2023-02-17T10:59:45;97044.44;;;15.42;23.88
64064;BME280;50314;50.618;10.642;2023-02-17T11:02:21;97046.25;;;15.41;24.08
64064;BME280;50314;50.618;10.642;2023-02-17T11:04:50;97044.28;;;15.43;23.99
64064;BME280;50314;50.618;10.642;2023-02-17T11:07:18;97040.78;;;15.43;23.96
64064;BME280;50314;50.618;10.642;2023-02-17T11:09:53;97041.78;;;15.42;23.95
64064;BME280;50314;50.618;10.642;2023-02-17T11:12:27;97032.84;;;15.43;24.03
64064;BME280;50314;50.618;10.642;2023-02-17T11:14:54;97035.22;;;15.46;23.68
64064;BME280;50314;50.618;10.642;2023-02-17T11:17:28;97036.31;;;15.43;23.96
64064;BME280;50314;50.618;10.642;2023-02-17T11:20:06;97028.38;;;15.43;24.15
64064;BME280;50314;50.618;10.642;2023-02-17T11:22:44;97032.84;;;15.43;24.00
64064;BME280;50314;50.618;10.642;2023-02-17T11:25:33;97036.47;;;15.42;24.03
64064;BME280;50314;50.618;10.642;2023-02-17T11:28:02;97032.72;;;15.44;23.94
64064;BME280;50314;50.618;10.642;2023-02-17T11:30:30;97021.94;;;15.46;23.91
64064;BME280;50314;50.618;10.642;2023-02-17T11:32:56;97028.09;;;15.46;23.76
64064;BME280;50314;50.618;10.642;2023-02-17T11:35:26;97020.00;;;15.48;23.97
64064;BME280;50314;50.618;10.642;2023-02-17T11:38:08;97014.97;;;15.45;23.87
64064;BME280;50314;50.618;10.642;2023-02-17T11:40:34;97014.69;;;15.48;23.81
64064;BME280;50314;50.618;10.642;2023-02-17T11:43:02;97015.53;;;15.48;23.91
64064;BME280;50314;50.618;10.642;2023-02-17T11:45:40;97016.63;;;15.46;23.94
64064;BME280;50314;50.618;10.642;2023-02-17T11:56:16;97003.25;;;15.47;23.67
64064;BME280;50314;50.618;10.642;2023-02-17T12:01:35;97002.53;;;15.45;24.18
64064;BME280;50314;50.618;10.642;2023-02-17T12:04:30;96998.22;;;15.44;23.90
64064;BME280;50314;50.618;10.642;2023-02-17T12:10:02;97008.00;;;15.44;23.95
64064;BME280;50314;50.618;10.642;2023-02-17T12:12:59;97005.19;;;15.45;24.23
64064;BME280;50314;50.618;10.642;2023-02-17T12:18:07;96980.03;;;15.49;23.85
64064;BME280;50314;50.618;10.642;2023-02-17T12:26:41;96947.50;;;15.47;23.85
64064;BME280;50314;50.618;10.642;2023-02-17T12:32:00;96931.16;;;15.42;24.12
64064;BME280;50314;50.618;10.642;2023-02-17T12:34:53;96934.50;;;15.44;23.70
64064;BME280;50314;50.618;10.642;2023-02-17T12:37:23;96926.00;;;15.50;24.04
64064;BME280;50314;50.618;10.642;2023-02-17T12:40:00;96925.13;;;15.50;23.99
64064;BME280;50314;50.618;10.642;2023-02-17T12:42:47;96928.66;;;15.50;23.94
64064;BME280;50314;50.618;10.642;2023-02-17T12:48:06;96918.16;;;15.49;24.12
64064;BME280;50314;50.618;10.642;2023-02-17T12:50:37;96934.53;;;15.54;23.75
64064;BME280;50314;50.618;10.642;2023-02-17T12:53:48;96926.00;;;15.50;23.96
64064;BME280;50314;50.618;10.642;2023-02-17T12:56:40;96920.69;;;15.50;24.12
64064;BME280;50314;50.618;10.642;2023-02-17T12:59:16;96908.09;;;15.53;23.77
64064;BME280;50314;50.618;10.642;2023-02-17T13:02:02;96903.78;;;15.52;24.12
64064;BME280;50314;50.618;10.642;2023-02-17T13:04:29;96894.56;;;15.56;23.96
64064;BME280;50314;50.618;10.642;2023-02-17T13:09:55;96898.88;;;15.57;23.65
64064;BME280;50314;50.618;10.642;2023-02-17T13:14:49;96896.94;;;15.59;23.92
64064;BME280;50314;50.618;10.642;2023-02-17T13:17:31;96883.81;;;15.57;23.69
64064;BME280;50314;50.618;10.642;2023-02-17T13:20:27;96891.91;;;15.56;23.94
64064;BME280;50314;50.618;10.642;2023-02-17T13:23:05;96884.66;;;15.58;23.78
64064;BME280;50314;50.618;10.642;2023-02-17T13:25:33;96888.69;;;15.62;23.87
64064;BME280;50314;50.618;10.642;2023-02-17T13:28:00;96897.38;;;15.64;23.76
64064;BME280;50314;50.618;10.642;2023-02-17T13:33:24;96886.03;;;15.62;23.79
64064;BME280;50314;50.618;10.642;2023-02-17T13:35:50;96874.31;;;15.64;23.83
64064;BME280;50314;50.618;10.642;2023-02-17T13:38:30;96884.22;;;15.62;23.72
64064;BME280;50314;50.618;10.642;2023-02-17T13:40:58;96877.78;;;15.65;23.72
64064;BME280;50314;50.618;10.642;2023-02-17T13:43:25;96866.88;;;15.68;23.74
64064;BME280;50314;50.618;10.642;2023-02-17T13:46:02;96870.50;;;15.67;23.73
64064;BME280;50314;50.618;10.642;2023-02-17T13:48:33;96852.63;;;15.69;23.86
64064;BME280;50314;50.618;10.642;2023-02-17T13:51:04;96843.94;;;15.67;23.79
64064;BME280;50314;50.618;10.642;2023-02-17T13:53:41;96856.00;;;15.71;23.67
64064;BME280;50314;50.618;10.642;2023-02-17T13:56:27;96847.59;;;15.66;23.87
64064;BME280;50314;50.618;10.642;2023-02-17T13:58:53;96863.81;;;15.72;23.89
64064;BME280;50314;50.618;10.642;2023-02-17T14:01:25;96849.84;;;15.70;23.88
64064;BME280;50314;50.618;10.642;2023-02-17T14:03:54;96861.03;;;15.74;23.73
64064;BME280;50314;50.618;10.642;2023-02-17T14:06:30;96850.69;;;15.71;23.80